sensor_id;sensor_type;location;lat;lon;timestamp;temperature;humidity
10678;DHT22;5387;48.722;9.110;2023-03-14T00:02:16;8.40;99.90
10678;DHT22;5387;48.722;9.110;2023-03-14T00:04:43;8.40;99.90
10678;DHT22;5387;48.722;9.110;2023-03-14T00:07:10;8.40;99.90
10678;DHT22;5387;48.722;9.110;2023-03-14T00:09:37;8.40;99.90
10678;DHT22;5387;48.722;9.110;2023-03-14T00:12:05;8.40;99.90
10678;DHT22;5387;48.722;9.110;2023-03-14T00:14:34;8.40;99.90
10678;DHT22;5387;48.722;9.110;2023-03-14T00:17:01;8.30;99.90
10678;DHT22;5387;48.722;9.110;2023-03-14T00:19:27;8.40;99.90
10678;DHT22;5387;48.722;9.110;2023-03-14T00:21:54;8.40;99.90
10678;DHT22;5387;48.722;9.110;2023-03-14T00:24:21;8.40;99.90
10678;DHT22;5387;48.722;9.110;2023-03-14T00:26:48;8.30;99.90
10678;DHT22;5387;48.722;9.110;2023-03-14T00:29:15;8.30;99.90
10678;DHT22;5387;48.722;9.110;2023-03-14T00:31:43;8.30;99.90
10678;DHT22;5387;48.722;9.110;2023-03-14T00:34:10;8.30;99.90
10678;DHT22;5387;48.722;9.110;2023-03-14T00:36:36;8.30;99.90
10678;DHT22;5387;48.722;9.110;2023-03-14T00:39:03;8.40;99.90
10678;DHT22;5387;48.722;9.110;2023-03-14T00:41:30;8.30;99.90
10678;DHT22;5387;48.722;9.110;2023-03-14T00:43:57;8.40;99.90
10678;DHT22;5387;48.722;9.110;2023-03-14T00:46:23;8.40;99.90
10678;DHT22;5387;48.722;9.110;2023-03-14T00:48:52;8.40;99.90
10678;DHT22;5387;48.722;9.110;2023-03-14T00:51:18;8.40;99.90
10678;DHT22;5387;48.722;9.110;2023-03-14T00:53:45;8.40;99.90
10678;DHT22;5387;48.722;9.110;2023-03-14T00:56:12;8.40;99.90
10678;DHT22;5387;48.722;9.110;2023-03-14T00:58:39;8.30;99.90
10678;DHT22;5387;48.722;9.110;2023-03-14T01:01:08;8.30;99.90
10678;DHT22;5387;48.722;9.110;2023-03-14T01:03:35;8.40;99.90
10678;DHT22;5387;48.722;9.110;2023-03-14T01:06:09;8.50;99.90
10678;DHT22;5387;48.722;9.110;2023-03-14T01:08:36;8.50;99.90
10678;DHT22;5387;48.722;9.110;2023-03-14T01:11:06;8.60;99.90
10678;DHT22;5387;48.722;9.110;2023-03-14T01:13:33;8.60;99.90
10678;DHT22;5387;48.722;9.110;2023-03-14T01:16:02;8.60;99.90
10678;DHT22;5387;48.722;9.110;2023-03-14T01:18:29;8.60;99.90
10678;DHT22;5387;48.722;9.110;2023-03-14T01:20:57;8.60;99.90
10678;DHT22;5387;48.722;9.110;2023-03-14T01:23:25;8.60;99.90
10678;DHT22;5387;48.722;9.110;2023-03-14T01:25:52;8.60;99.90
10678;DHT22;5387;48.722;9.110;2023-03-14T01:28:19;8.60;99.90
10678;DHT22;5387;48.722;9.110;2023-03-14T01:30:46;8.60;99.90
10678;DHT22;5387;48.722;9.110;2023-03-14T01:33:12;8.50;99.90
10678;DHT22;5387;48.722;9.110;2023-03-14T01:35:40;8.50;99.90
10678;DHT22;5387;48.722;9.110;2023-03-14T01:38:07;8.60;99.90
10678;DHT22;5387;48.722;9.110;2023-03-14T01:40:41;8.60;99.90
10678;DHT22;5387;48.722;9.110;2023-03-14T01:43:14;8.60;99.90
10678;DHT22;5387;48.722;9.110;2023-03-14T01:46:17;8.60;99.90
10678;DHT22;5387;48.722;9.110;2023-03-14T01:48:47;8.60;99.90
10678;DHT22;5387;48.722;9.110;2023-03-14T01:51:18;8.60;99.90
10678;DHT22;5387;48.722;9.110;2023-03-14T01:53:47;8.60;99.90
10678;DHT22;5387;48.722;9.110;2023-03-14T01:56:17;8.50;99.90
10678;DHT22;5387;48.722;9.110;2023-03-14T01:58:47;8.50;99.90
10678;DHT22;5387;48.722;9.110;2023-03-14T02:01:17;8.40;99.90
10678;DHT22;5387;48.722;9.110;2023-03-14T02:03:48;8.50;99.90
10678;DHT22;5387;48.722;9.110;2023-03-14T02:06:19;8.40;99.90
10678;DHT22;5387;48.722;9.110;2023-03-14T02:08:47;8.50;99.90
10678;DHT22;5387;48.722;9.110;2023-03-14T02:11:17;8.40;99.90
10678;DHT22;5387;48.722;9.110;2023-03-14T02:13:44;8.30;99.90
10678;DHT22;5387;48.722;9.110;2023-03-14T02:16:11;8.30;99.90
10678;DHT22;5387;48.722;9.110;2023-03-14T02:18:38;8.30;99.90
10678;DHT22;5387;48.722;9.110;2023-03-14T02:21:12;8.30;99.90
10678;DHT22;5387;48.722;9.110;2023-03-14T02:23:46;8.30;99.90
10678;DHT22;5387;48.722;9.110;2023-03-14T02:26:20;8.30;99.90
10678;DHT22;5387;48.722;9.110;2023-03-14T02:28:49;8.40;99.90
10678;DHT22;5387;48.722;9.110;2023-03-14T02:31:18;8.30;99.90
10678;DHT22;5387;48.722;9.110;2023-03-14T02:33:46;8.40;99.90
10678;DHT22;5387;48.722;9.110;2023-03-14T02:36:14;8.40;99.90
10678;DHT22;5387;48.722;9.110;2023-03-14T02:38:45;8.30;99.90
10678;DHT22;5387;48.722;9.110;2023-03-14T02:41:13;8.30;99.90
10678;DHT22;5387;48.722;9.110;2023-03-14T02:43:40;8.40;99.90
10678;DHT22;5387;48.722;9.110;2023-03-14T02:46:10;8.40;99.90
10678;DHT22;5387;48.722;9.110;2023-03-14T02:48:41;8.40;99.90
10678;DHT22;5387;48.722;9.110;2023-03-14T02:51:10;8.40;99.90
10678;DHT22;5387;48.722;9.110;2023-03-14T02:53:37;8.30;99.90
10678;DHT22;5387;48.722;9.110;2023-03-14T02:56:07;8.30;99.90
10678;DHT22;5387;48.722;9.110;2023-03-14T02:58:35;8.30;99.90
10678;DHT22;5387;48.722;9.110;2023-03-14T03:01:02;8.40;99.90
10678;DHT22;5387;48.722;9.110;2023-03-14T03:03:30;8.30;99.90
10678;DHT22;5387;48.722;9.110;2023-03-14T03:05:58;8.40;99.90
10678;DHT22;5387;48.722;9.110;2023-03-14T03:08:26;8.30;99.90
10678;DHT22;5387;48.722;9.110;2023-03-14T03:10:54;8.30;99.90
10678;DHT22;5387;48.722;9.110;2023-03-14T03:13:21;8.60;99.90
10678;DHT22;5387;48.722;9.110;2023-03-14T03:15:48;8.30;99.90
10678;DHT22;5387;48.722;9.110;2023-03-14T03:18:15;8.30;99.90
10678;DHT22;5387;48.722;9.110;2023-03-14T03:20:43;8.30;99.90
10678;DHT22;5387;48.722;9.110;2023-03-14T03:23:11;8.30;99.90
10678;DHT22;5387;48.722;9.110;2023-03-14T03:25:38;8.20;99.90
10678;DHT22;5387;48.722;9.110;2023-03-14T03:28:05;8.20;99.90
10678;DHT22;5387;48.722;9.110;2023-03-14T03:30:34;8.30;99.90
10678;DHT22;5387;48.722;9.110;2023-03-14T03:33:03;8.20;99.90
10678;DHT22;5387;48.722;9.110;2023-03-14T03:35:30;8.30;99.90
10678;DHT22;5387;48.722;9.110;2023-03-14T03:37:58;8.20;99.90
10678;DHT22;5387;48.722;9.110;2023-03-14T03:40:25;8.20;99.90
10678;DHT22;5387;48.722;9.110;2023-03-14T03:42:52;8.20;99.90
10678;DHT22;5387;48.722;9.110;2023-03-14T03:45:19;8.20;99.90
10678;DHT22;5387;48.722;9.110;2023-03-14T03:47:46;8.10;99.90
10678;DHT22;5387;48.722;9.110;2023-03-14T03:50:13;8.10;99.90
10678;DHT22;5387;48.722;9.110;2023-03-14T03:52:40;8.00;99.90
10678;DHT22;5387;48.722;9.110;2023-03-14T03:55:09;8.00;99.90
10678;DHT22;5387;48.722;9.110;2023-03-14T03:57:36;7.90;99.90
10678;DHT22;5387;48.722;9.110;2023-03-14T04:00:04;8.00;99.90
10678;DHT22;5387;48.722;9.110;2023-03-14T04:02:32;8.00;99.90
10678;DHT22;5387;48.722;9.110;2023-03-14T04:04:58;8.00;99.90
10678;DHT22;5387;48.722;9.110;2023-03-14T04:07:25;8.00;99.90
10678;DHT22;5387;48.722;9.110;2023-03-14T04:09:52;8.00;99.90
10678;DHT22;5387;48.722;9.110;2023-03-14T04:12:20;8.00;99.90
10678;DHT22;5387;48.722;9.110;2023-03-14T04:14:47;8.00;99.90
10678;DHT22;5387;48.722;9.110;2023-03-14T04:17:14;8.00;99.90
10678;DHT22;5387;48.722;9.110;2023-03-14T04:19:41;8.10;99.90
10678;DHT22;5387;48.722;9.110;2023-03-14T04:22:08;8.10;99.90
10678;DHT22;5387;48.722;9.110;2023-03-14T04:24:35;8.00;99.90
10678;DHT22;5387;48.722;9.110;2023-03-14T04:27:02;8.10;99.90
10678;DHT22;5387;48.722;9.110;2023-03-14T04:29:30;8.10;99.90
10678;DHT22;5387;48.722;9.110;2023-03-14T04:31:57;8.00;99.90
10678;DHT22;5387;48.722;9.110;2023-03-14T04:34:24;8.10;99.90
10678;DHT22;5387;48.722;9.110;2023-03-14T04:36:50;8.10;99.90
10678;DHT22;5387;48.722;9.110;2023-03-14T04:39:17;8.10;99.90
10678;DHT22;5387;48.722;9.110;2023-03-14T04:41:44;8.00;99.90
10678;DHT22;5387;48.722;9.110;2023-03-14T04:44:11;7.90;99.90
10678;DHT22;5387;48.722;9.110;2023-03-14T04:46:39;7.90;99.90
10678;DHT22;5387;48.722;9.110;2023-03-14T04:49:06;7.80;99.90
10678;DHT22;5387;48.722;9.110;2023-03-14T04:51:33;7.80;99.90
10678;DHT22;5387;48.722;9.110;2023-03-14T04:54:00;7.80;99.90
10678;DHT22;5387;48.722;9.110;2023-03-14T04:56:26;7.90;99.90
10678;DHT22;5387;48.722;9.110;2023-03-14T04:58:54;7.80;99.90
10678;DHT22;5387;48.722;9.110;2023-03-14T05:01:21;7.70;99.90
10678;DHT22;5387;48.722;9.110;2023-03-14T05:03:49;7.70;99.90
10678;DHT22;5387;48.722;9.110;2023-03-14T05:06:16;7.60;99.90
10678;DHT22;5387;48.722;9.110;2023-03-14T05:08:43;7.70;99.90
10678;DHT22;5387;48.722;9.110;2023-03-14T05:11:10;7.70;99.90
10678;DHT22;5387;48.722;9.110;2023-03-14T05:13:38;7.80;99.90
10678;DHT22;5387;48.722;9.110;2023-03-14T05:16:06;7.70;99.90
10678;DHT22;5387;48.722;9.110;2023-03-14T05:18:34;7.90;99.90
10678;DHT22;5387;48.722;9.110;2023-03-14T05:21:04;7.80;99.90
10678;DHT22;5387;48.722;9.110;2023-03-14T05:23:31;7.90;99.90
10678;DHT22;5387;48.722;9.110;2023-03-14T05:25:58;8.00;99.90
10678;DHT22;5387;48.722;9.110;2023-03-14T05:28:25;7.90;99.90
10678;DHT22;5387;48.722;9.110;2023-03-14T05:30:52;7.90;99.90
10678;DHT22;5387;48.722;9.110;2023-03-14T05:33:19;8.00;99.90
10678;DHT22;5387;48.722;9.110;2023-03-14T05:35:46;8.10;99.90
10678;DHT22;5387;48.722;9.110;2023-03-14T05:38:14;8.10;99.90
10678;DHT22;5387;48.722;9.110;2023-03-14T05:40:41;8.20;99.90
10678;DHT22;5387;48.722;9.110;2023-03-14T05:43:08;8.00;99.90
10678;DHT22;5387;48.722;9.110;2023-03-14T05:45:35;8.00;99.90
10678;DHT22;5387;48.722;9.110;2023-03-14T05:48:02;8.00;99.90
10678;DHT22;5387;48.722;9.110;2023-03-14T05:50:29;8.00;99.90
10678;DHT22;5387;48.722;9.110;2023-03-14T05:52:56;7.90;99.90
10678;DHT22;5387;48.722;9.110;2023-03-14T05:55:24;7.90;99.90
10678;DHT22;5387;48.722;9.110;2023-03-14T05:57:52;8.00;99.90
10678;DHT22;5387;48.722;9.110;2023-03-14T06:00:20;7.90;99.90
10678;DHT22;5387;48.722;9.110;2023-03-14T06:02:47;7.90;99.90
10678;DHT22;5387;48.722;9.110;2023-03-14T06:05:14;7.90;99.90
10678;DHT22;5387;48.722;9.110;2023-03-14T06:07:41;7.90;99.90
10678;DHT22;5387;48.722;9.110;2023-03-14T06:10:08;7.90;99.90
10678;DHT22;5387;48.722;9.110;2023-03-14T06:12:37;8.00;99.90
10678;DHT22;5387;48.722;9.110;2023-03-14T06:15:04;8.00;99.90
10678;DHT22;5387;48.722;9.110;2023-03-14T06:17:31;8.00;99.90
10678;DHT22;5387;48.722;9.110;2023-03-14T06:19:58;8.00;99.90
10678;DHT22;5387;48.722;9.110;2023-03-14T06:22:25;8.00;99.90
10678;DHT22;5387;48.722;9.110;2023-03-14T06:24:52;7.90;99.90
10678;DHT22;5387;48.722;9.110;2023-03-14T06:27:19;7.90;99.90
10678;DHT22;5387;48.722;9.110;2023-03-14T06:29:47;7.90;99.90
10678;DHT22;5387;48.722;9.110;2023-03-14T06:32:14;8.20;99.90
10678;DHT22;5387;48.722;9.110;2023-03-14T06:34:41;8.20;99.90
10678;DHT22;5387;48.722;9.110;2023-03-14T06:37:07;8.20;99.90
10678;DHT22;5387;48.722;9.110;2023-03-14T06:39:34;8.20;99.90
10678;DHT22;5387;48.722;9.110;2023-03-14T06:42:01;8.20;99.90
10678;DHT22;5387;48.722;9.110;2023-03-14T06:44:28;8.30;99.90
10678;DHT22;5387;48.722;9.110;2023-03-14T06:46:56;8.40;99.90
10678;DHT22;5387;48.722;9.110;2023-03-14T06:49:23;8.50;99.90
10678;DHT22;5387;48.722;9.110;2023-03-14T06:51:50;8.50;99.90
10678;DHT22;5387;48.722;9.110;2023-03-14T06:54:17;8.60;99.90
10678;DHT22;5387;48.722;9.110;2023-03-14T06:56:44;8.60;99.90
10678;DHT22;5387;48.722;9.110;2023-03-14T06:59:10;8.70;99.90
10678;DHT22;5387;48.722;9.110;2023-03-14T07:01:37;8.90;99.90
10678;DHT22;5387;48.722;9.110;2023-03-14T07:04:06;8.90;99.90
10678;DHT22;5387;48.722;9.110;2023-03-14T07:06:33;8.90;99.90
10678;DHT22;5387;48.722;9.110;2023-03-14T07:09:00;8.90;99.90
10678;DHT22;5387;48.722;9.110;2023-03-14T07:11:27;8.90;99.90
10678;DHT22;5387;48.722;9.110;2023-03-14T07:13:53;8.90;99.90
10678;DHT22;5387;48.722;9.110;2023-03-14T07:16:20;9.00;99.90
10678;DHT22;5387;48.722;9.110;2023-03-14T07:18:47;9.00;99.90
10678;DHT22;5387;48.722;9.110;2023-03-14T07:21:16;9.10;99.90
10678;DHT22;5387;48.722;9.110;2023-03-14T07:23:42;9.00;99.90
10678;DHT22;5387;48.722;9.110;2023-03-14T07:26:09;9.20;99.90
10678;DHT22;5387;48.722;9.110;2023-03-14T07:28:36;9.30;99.90
10678;DHT22;5387;48.722;9.110;2023-03-14T07:31:03;9.40;99.90
10678;DHT22;5387;48.722;9.110;2023-03-14T07:33:30;9.50;99.90
10678;DHT22;5387;48.722;9.110;2023-03-14T07:35:57;9.60;99.90
10678;DHT22;5387;48.722;9.110;2023-03-14T07:38:26;9.90;99.90
10678;DHT22;5387;48.722;9.110;2023-03-14T07:40:58;9.90;99.90
10678;DHT22;5387;48.722;9.110;2023-03-14T07:43:25;10.00;99.90
10678;DHT22;5387;48.722;9.110;2023-03-14T07:45:52;10.20;99.90
10678;DHT22;5387;48.722;9.110;2023-03-14T07:48:19;10.30;99.90
10678;DHT22;5387;48.722;9.110;2023-03-14T07:50:48;10.30;99.90
10678;DHT22;5387;48.722;9.110;2023-03-14T07:53:15;10.50;99.90
10678;DHT22;5387;48.722;9.110;2023-03-14T07:55:44;10.60;99.90
10678;DHT22;5387;48.722;9.110;2023-03-14T07:58:11;10.80;99.90
10678;DHT22;5387;48.722;9.110;2023-03-14T08:00:38;10.50;99.90
10678;DHT22;5387;48.722;9.110;2023-03-14T08:03:05;10.60;99.90
10678;DHT22;5387;48.722;9.110;2023-03-14T08:05:34;10.70;99.90
10678;DHT22;5387;48.722;9.110;2023-03-14T08:08:01;10.80;99.90
10678;DHT22;5387;48.722;9.110;2023-03-14T08:10:28;10.90;99.90
10678;DHT22;5387;48.722;9.110;2023-03-14T08:12:58;10.70;99.90
10678;DHT22;5387;48.722;9.110;2023-03-14T08:15:25;10.70;99.90
10678;DHT22;5387;48.722;9.110;2023-03-14T08:17:52;10.80;99.90
10678;DHT22;5387;48.722;9.110;2023-03-14T08:20:21;11.10;99.90
10678;DHT22;5387;48.722;9.110;2023-03-14T08:22:48;11.20;99.90
10678;DHT22;5387;48.722;9.110;2023-03-14T08:25:15;11.40;99.90
10678;DHT22;5387;48.722;9.110;2023-03-14T08:27:43;11.60;99.90
10678;DHT22;5387;48.722;9.110;2023-03-14T08:30:14;11.80;99.90
10678;DHT22;5387;48.722;9.110;2023-03-14T08:32:41;12.00;99.90
10678;DHT22;5387;48.722;9.110;2023-03-14T08:35:09;12.20;99.90
10678;DHT22;5387;48.722;9.110;2023-03-14T08:37:35;12.20;99.90
10678;DHT22;5387;48.722;9.110;2023-03-14T08:40:03;12.20;99.90
10678;DHT22;5387;48.722;9.110;2023-03-14T08:42:32;12.10;99.90
10678;DHT22;5387;48.722;9.110;2023-03-14T08:44:59;12.30;99.90
10678;DHT22;5387;48.722;9.110;2023-03-14T08:47:27;12.10;99.90
10678;DHT22;5387;48.722;9.110;2023-03-14T08:49:54;11.80;99.90
10678;DHT22;5387;48.722;9.110;2023-03-14T08:52:21;11.70;99.90
10678;DHT22;5387;48.722;9.110;2023-03-14T08:54:47;11.80;99.90
10678;DHT22;5387;48.722;9.110;2023-03-14T08:57:15;11.70;99.90
10678;DHT22;5387;48.722;9.110;2023-03-14T08:59:42;11.40;99.90
10678;DHT22;5387;48.722;9.110;2023-03-14T09:02:10;11.40;99.90
10678;DHT22;5387;48.722;9.110;2023-03-14T09:04:38;11.40;99.90
10678;DHT22;5387;48.722;9.110;2023-03-14T09:07:05;11.20;99.90
10678;DHT22;5387;48.722;9.110;2023-03-14T09:09:32;11.10;99.90
10678;DHT22;5387;48.722;9.110;2023-03-14T09:11:59;11.20;99.90
10678;DHT22;5387;48.722;9.110;2023-03-14T09:14:26;11.40;99.90
10678;DHT22;5387;48.722;9.110;2023-03-14T09:16:52;11.20;99.90
10678;DHT22;5387;48.722;9.110;2023-03-14T09:19:20;11.00;99.90
10678;DHT22;5387;48.722;9.110;2023-03-14T09:21:48;11.00;99.90
10678;DHT22;5387;48.722;9.110;2023-03-14T09:24:15;11.00;99.90
10678;DHT22;5387;48.722;9.110;2023-03-14T09:26:42;11.00;99.90
10678;DHT22;5387;48.722;9.110;2023-03-14T09:29:08;11.30;99.90
10678;DHT22;5387;48.722;9.110;2023-03-14T09:31:36;11.40;99.90
10678;DHT22;5387;48.722;9.110;2023-03-14T09:34:02;11.50;99.90
10678;DHT22;5387;48.722;9.110;2023-03-14T09:36:29;11.60;99.90
10678;DHT22;5387;48.722;9.110;2023-03-14T09:38:58;11.40;99.90
10678;DHT22;5387;48.722;9.110;2023-03-14T09:41:26;11.50;99.90
10678;DHT22;5387;48.722;9.110;2023-03-14T09:44:00;11.60;99.90
10678;DHT22;5387;48.722;9.110;2023-03-14T09:46:29;11.70;99.90
10678;DHT22;5387;48.722;9.110;2023-03-14T09:48:57;11.50;99.90
10678;DHT22;5387;48.722;9.110;2023-03-14T09:51:23;11.30;99.90
10678;DHT22;5387;48.722;9.110;2023-03-14T09:53:51;11.30;99.90
10678;DHT22;5387;48.722;9.110;2023-03-14T09:56:21;11.50;99.90
10678;DHT22;5387;48.722;9.110;2023-03-14T09:58:52;11.60;99.90
10678;DHT22;5387;48.722;9.110;2023-03-14T10:01:25;11.40;99.90
10678;DHT22;5387;48.722;9.110;2023-03-14T10:03:54;11.20;99.90
10678;DHT22;5387;48.722;9.110;2023-03-14T10:06:24;11.10;99.90
10678;DHT22;5387;48.722;9.110;2023-03-14T10:08:52;11.30;99.90
10678;DHT22;5387;48.722;9.110;2023-03-14T10:11:21;11.50;99.90
10678;DHT22;5387;48.722;9.110;2023-03-14T10:14:01;11.70;99.90
10678;DHT22;5387;48.722;9.110;2023-03-14T10:16:30;11.80;99.90
10678;DHT22;5387;48.722;9.110;2023-03-14T10:19:02;11.90;99.90
10678;DHT22;5387;48.722;9.110;2023-03-14T10:21:31;12.00;99.90
10678;DHT22;5387;48.722;9.110;2023-03-14T10:24:18;12.20;99.90
10678;DHT22;5387;48.722;9.110;2023-03-14T10:26:49;12.40;99.90
10678;DHT22;5387;48.722;9.110;2023-03-14T10:29:16;12.60;99.90
10678;DHT22;5387;48.722;9.110;2023-03-14T10:31:51;12.50;99.90
10678;DHT22;5387;48.722;9.110;2023-03-14T10:34:23;12.50;99.90
10678;DHT22;5387;48.722;9.110;2023-03-14T10:36:55;12.60;99.90
10678;DHT22;5387;48.722;9.110;2023-03-14T10:39:29;12.70;99.90
10678;DHT22;5387;48.722;9.110;2023-03-14T10:42:05;12.60;99.90
10678;DHT22;5387;48.722;9.110;2023-03-14T10:44:34;12.40;99.90
10678;DHT22;5387;48.722;9.110;2023-03-14T10:47:03;12.50;99.90
10678;DHT22;5387;48.722;9.110;2023-03-14T10:49:32;12.70;99.90
10678;DHT22;5387;48.722;9.110;2023-03-14T10:52:02;12.70;99.90
10678;DHT22;5387;48.722;9.110;2023-03-14T10:54:38;12.70;99.90
10678;DHT22;5387;48.722;9.110;2023-03-14T10:57:07;12.00;99.90
10678;DHT22;5387;48.722;9.110;2023-03-14T10:59:36;11.80;99.90
10678;DHT22;5387;48.722;9.110;2023-03-14T11:02:15;11.70;99.90
10678;DHT22;5387;48.722;9.110;2023-03-14T11:04:57;11.40;99.90
10678;DHT22;5387;48.722;9.110;2023-03-14T11:07:34;11.40;99.90
10678;DHT22;5387;48.722;9.110;2023-03-14T11:10:11;11.40;99.90
10678;DHT22;5387;48.722;9.110;2023-03-14T11:12:49;11.60;99.90
10678;DHT22;5387;48.722;9.110;2023-03-14T11:15:23;11.60;99.90
10678;DHT22;5387;48.722;9.110;2023-03-14T11:18:06;11.50;99.90
10678;DHT22;5387;48.722;9.110;2023-03-14T11:20:43;11.40;99.90
10678;DHT22;5387;48.722;9.110;2023-03-14T11:23:14;11.40;99.90
10678;DHT22;5387;48.722;9.110;2023-03-14T11:25:48;11.30;99.90
10678;DHT22;5387;48.722;9.110;2023-03-14T11:28:23;11.10;99.90
10678;DHT22;5387;48.722;9.110;2023-03-14T11:30:54;10.90;99.90
10678;DHT22;5387;48.722;9.110;2023-03-14T11:33:24;10.80;99.90
10678;DHT22;5387;48.722;9.110;2023-03-14T11:35:59;10.80;99.90
10678;DHT22;5387;48.722;9.110;2023-03-14T11:38:32;10.70;99.90
10678;DHT22;5387;48.722;9.110;2023-03-14T11:41:00;10.80;99.90
10678;DHT22;5387;48.722;9.110;2023-03-14T11:43:30;10.60;99.90
10678;DHT22;5387;48.722;9.110;2023-03-14T11:46:04;10.60;99.90
10678;DHT22;5387;48.722;9.110;2023-03-14T11:48:38;10.60;99.90
10678;DHT22;5387;48.722;9.110;2023-03-14T11:51:12;10.70;99.90
10678;DHT22;5387;48.722;9.110;2023-03-14T11:53:45;10.60;99.90
10678;DHT22;5387;48.722;9.110;2023-03-14T11:56:19;10.30;99.90
10678;DHT22;5387;48.722;9.110;2023-03-14T11:58:55;10.50;99.90
10678;DHT22;5387;48.722;9.110;2023-03-14T12:01:30;10.60;99.90
10678;DHT22;5387;48.722;9.110;2023-03-14T12:04:05;10.70;99.90
10678;DHT22;5387;48.722;9.110;2023-03-14T12:06:37;10.80;99.90
10678;DHT22;5387;48.722;9.110;2023-03-14T12:09:08;10.70;99.90
10678;DHT22;5387;48.722;9.110;2023-03-14T12:11:40;10.50;99.90
10678;DHT22;5387;48.722;9.110;2023-03-14T12:14:22;10.30;99.90
10678;DHT22;5387;48.722;9.110;2023-03-14T12:16:54;10.30;99.90
10678;DHT22;5387;48.722;9.110;2023-03-14T12:19:34;10.10;99.90
10678;DHT22;5387;48.722;9.110;2023-03-14T12:22:26;10.20;99.90
10678;DHT22;5387;48.722;9.110;2023-03-14T12:24:57;10.30;99.90
10678;DHT22;5387;48.722;9.110;2023-03-14T12:30:42;10.20;99.90
10678;DHT22;5387;48.722;9.110;2023-03-14T12:33:33;10.60;99.90
10678;DHT22;5387;48.722;9.110;2023-03-14T12:36:02;11.00;99.90
10678;DHT22;5387;48.722;9.110;2023-03-14T12:38:41;10.30;99.90
10678;DHT22;5387;48.722;9.110;2023-03-14T12:41:15;10.00;99.90
10678;DHT22;5387;48.722;9.110;2023-03-14T12:43:43;10.10;99.90
10678;DHT22;5387;48.722;9.110;2023-03-14T12:46:25;10.30;99.90
10678;DHT22;5387;48.722;9.110;2023-03-14T12:49:03;10.40;99.90
10678;DHT22;5387;48.722;9.110;2023-03-14T12:51:35;10.40;99.90
10678;DHT22;5387;48.722;9.110;2023-03-14T12:54:28;10.40;99.90
10678;DHT22;5387;48.722;9.110;2023-03-14T12:57:19;10.60;99.90
10678;DHT22;5387;48.722;9.110;2023-03-14T12:59:55;10.40;99.90
10678;DHT22;5387;48.722;9.110;2023-03-14T13:02:26;10.10;99.90
10678;DHT22;5387;48.722;9.110;2023-03-14T13:05:02;10.00;99.90
10678;DHT22;5387;48.722;9.110;2023-03-14T13:07:36;9.80;99.90
10678;DHT22;5387;48.722;9.110;2023-03-14T13:10:23;9.70;99.90
10678;DHT22;5387;48.722;9.110;2023-03-14T13:12:51;9.40;99.90
10678;DHT22;5387;48.722;9.110;2023-03-14T13:15:24;9.30;99.90
10678;DHT22;5387;48.722;9.110;2023-03-14T13:17:54;9.50;99.90
10678;DHT22;5387;48.722;9.110;2023-03-14T13:20:27;9.70;99.90
10678;DHT22;5387;48.722;9.110;2023-03-14T13:22:55;9.90;99.90
10678;DHT22;5387;48.722;9.110;2023-03-14T13:25:22;10.00;99.90
10678;DHT22;5387;48.722;9.110;2023-03-14T13:27:49;10.10;99.90
10678;DHT22;5387;48.722;9.110;2023-03-14T13:30:22;10.30;99.90
10678;DHT22;5387;48.722;9.110;2023-03-14T13:32:50;10.20;99.90
10678;DHT22;5387;48.722;9.110;2023-03-14T13:35:21;10.10;99.90
10678;DHT22;5387;48.722;9.110;2023-03-14T13:37:53;9.60;99.90
10678;DHT22;5387;48.722;9.110;2023-03-14T13:40:25;9.20;99.90
10678;DHT22;5387;48.722;9.110;2023-03-14T13:43:14;9.20;99.90
10678;DHT22;5387;48.722;9.110;2023-03-14T13:45:44;9.10;99.90
10678;DHT22;5387;48.722;9.110;2023-03-14T13:48:12;9.10;99.90
10678;DHT22;5387;48.722;9.110;2023-03-14T13:50:48;9.10;99.90
10678;DHT22;5387;48.722;9.110;2023-03-14T13:53:15;9.00;99.90
10678;DHT22;5387;48.722;9.110;2023-03-14T13:55:42;8.80;99.90
10678;DHT22;5387;48.722;9.110;2023-03-14T13:58:19;8.80;99.90
10678;DHT22;5387;48.722;9.110;2023-03-14T14:00:55;8.80;99.90
10678;DHT22;5387;48.722;9.110;2023-03-14T14:03:23;8.60;99.90
10678;DHT22;5387;48.722;9.110;2023-03-14T14:05:51;8.90;99.90
10678;DHT22;5387;48.722;9.110;2023-03-14T14:08:18;8.70;99.90
10678;DHT22;5387;48.722;9.110;2023-03-14T14:10:47;8.40;99.90
10678;DHT22;5387;48.722;9.110;2023-03-14T14:13:16;8.40;99.90
10678;DHT22;5387;48.722;9.110;2023-03-14T14:15:47;8.30;99.90
10678;DHT22;5387;48.722;9.110;2023-03-14T14:18:17;8.30;99.90
10678;DHT22;5387;48.722;9.110;2023-03-14T14:20:46;8.20;99.90
10678;DHT22;5387;48.722;9.110;2023-03-14T14:23:17;8.20;99.90
10678;DHT22;5387;48.722;9.110;2023-03-14T14:25:50;8.40;99.90
10678;DHT22;5387;48.722;9.110;2023-03-14T14:28:23;8.30;99.90
10678;DHT22;5387;48.722;9.110;2023-03-14T14:31:00;8.20;99.90
10678;DHT22;5387;48.722;9.110;2023-03-14T14:33:28;8.30;99.90
10678;DHT22;5387;48.722;9.110;2023-03-14T14:35:56;8.30;99.90
10678;DHT22;5387;48.722;9.110;2023-03-14T14:38:26;8.10;99.90
10678;DHT22;5387;48.722;9.110;2023-03-14T14:40:54;8.10;99.90
10678;DHT22;5387;48.722;9.110;2023-03-14T14:43:24;8.10;99.90
10678;DHT22;5387;48.722;9.110;2023-03-14T14:45:54;8.20;99.90
10678;DHT22;5387;48.722;9.110;2023-03-14T14:48:24;8.10;99.90
10678;DHT22;5387;48.722;9.110;2023-03-14T14:50:57;8.10;99.90
10678;DHT22;5387;48.722;9.110;2023-03-14T14:53:29;8.10;99.90
10678;DHT22;5387;48.722;9.110;2023-03-14T14:55:59;8.10;99.90
10678;DHT22;5387;48.722;9.110;2023-03-14T14:58:27;8.00;99.90
10678;DHT22;5387;48.722;9.110;2023-03-14T15:00:57;7.90;99.90
10678;DHT22;5387;48.722;9.110;2023-03-14T15:03:27;7.90;99.90
10678;DHT22;5387;48.722;9.110;2023-03-14T15:05:55;8.00;99.90
10678;DHT22;5387;48.722;9.110;2023-03-14T15:08:22;8.10;99.90
10678;DHT22;5387;48.722;9.110;2023-03-14T15:10:50;8.30;99.90
10678;DHT22;5387;48.722;9.110;2023-03-14T15:13:17;8.60;99.90
10678;DHT22;5387;48.722;9.110;2023-03-14T15:15:44;8.60;99.90
10678;DHT22;5387;48.722;9.110;2023-03-14T15:18:13;8.80;99.90
10678;DHT22;5387;48.722;9.110;2023-03-14T15:20:41;8.80;99.90
10678;DHT22;5387;48.722;9.110;2023-03-14T15:23:10;8.60;99.90
10678;DHT22;5387;48.722;9.110;2023-03-14T15:25:37;8.50;99.90
10678;DHT22;5387;48.722;9.110;2023-03-14T15:28:14;8.40;99.90
10678;DHT22;5387;48.722;9.110;2023-03-14T15:30:42;8.20;99.90
10678;DHT22;5387;48.722;9.110;2023-03-14T15:33:08;8.10;99.90
10678;DHT22;5387;48.722;9.110;2023-03-14T15:35:36;8.10;99.90
10678;DHT22;5387;48.722;9.110;2023-03-14T15:38:04;8.10;99.90
10678;DHT22;5387;48.722;9.110;2023-03-14T15:40:31;8.10;99.90
10678;DHT22;5387;48.722;9.110;2023-03-14T15:42:58;8.10;99.90
10678;DHT22;5387;48.722;9.110;2023-03-14T15:45:26;8.10;99.90
10678;DHT22;5387;48.722;9.110;2023-03-14T15:47:53;7.90;99.90
10678;DHT22;5387;48.722;9.110;2023-03-14T15:50:20;7.90;99.90
10678;DHT22;5387;48.722;9.110;2023-03-14T15:52:47;7.90;99.90
10678;DHT22;5387;48.722;9.110;2023-03-14T15:55:14;7.90;99.90
10678;DHT22;5387;48.722;9.110;2023-03-14T15:57:41;7.80;99.90
10678;DHT22;5387;48.722;9.110;2023-03-14T16:00:11;7.70;99.90
10678;DHT22;5387;48.722;9.110;2023-03-14T16:02:41;7.60;99.90
10678;DHT22;5387;48.722;9.110;2023-03-14T16:05:09;7.50;99.90
10678;DHT22;5387;48.722;9.110;2023-03-14T16:07:36;7.50;99.90
10678;DHT22;5387;48.722;9.110;2023-03-14T16:10:04;7.40;99.90
10678;DHT22;5387;48.722;9.110;2023-03-14T16:12:32;7.40;99.90
10678;DHT22;5387;48.722;9.110;2023-03-14T16:14:59;7.40;99.90